Time;durP1;ratioP1;P1;durP2;ratioP2;P2;SDS_P1;SDS_P2;PMS_P1;PMS_P2;Temp;Humidity;BMP_temperature;BMP_pressure;BME280_temperature;BME280_humidity;BME280_pressure;Samples;Min_cycle;Max_cycle;Signal;HPM_P1;HPM_P2
2022/02/11 00:01:20;;;;;;;32.53;12.57;;;3.30;85.70;;;;;;5003154;28;20318;-73
2022/02/11 00:08:45;;;;;;;21.77;12.13;;;3.20;86.00;;;;;;5000533;28;20189;-74
2022/02/11 00:11:15;;;;;;;23.53;12.00;;;3.10;86.00;;;;;;5002747;28;20181;-73
2022/02/11 00:13:40;;;;;;;24.97;10.67;;;3.00;86.30;;;;;;5004665;28;20219;-73
2022/02/11 00:16:06;;;;;;;20.20;11.43;;;3.00;86.40;;;;;;5004560;28;20218;-72
2022/02/11 00:18:32;;;;;;;21.87;11.80;;;3.00;86.90;;;;;;5001653;28;20227;-72
2022/02/11 00:20:57;;;;;;;20.80;11.73;;;2.90;86.70;;;;;;5003010;28;20185;-73
2022/02/11 00:23:23;;;;;;;24.80;11.60;;;2.90;86.90;;;;;;5003122;28;21649;-75
2022/02/11 00:26:00;;;;;;;18.43;10.73;;;2.90;86.90;;;;;;5004576;28;20185;-74
2022/02/11 00:33:59;;;;;;;20.90;11.43;;;2.80;87.00;;;;;;4994156;28;20243;-74
2022/02/11 00:36:44;;;;;;;22.67;10.43;;;2.80;87.00;;;;;;5007976;28;20319;-72
2022/02/11 01:06:20;;;;;;;15.57;10.53;;;2.90;87.70;;;;;;4951265;28;20194;-74
2022/02/11 01:08:46;;;;;;;18.77;10.33;;;2.90;87.60;;;;;;4944576;28;20268;-73
2022/02/11 01:11:18;;;;;;;17.40;9.77;;;2.90;87.70;;;;;;4960122;28;20658;-73
2022/02/11 01:13:44;;;;;;;22.17;10.80;;;2.90;87.80;;;;;;4965069;28;20237;-73
2022/02/11 01:16:16;;;;;;;18.27;9.73;;;2.90;87.60;;;;;;4968189;28;20221;-72
2022/02/11 01:18:48;;;;;;;20.20;10.60;;;2.90;87.30;;;;;;4948866;28;21883;-73
2022/02/11 01:21:22;;;;;;;19.37;9.37;;;2.80;87.00;;;;;;4960834;28;20261;-73
2022/02/11 01:24:04;;;;;;;16.90;9.47;;;2.80;87.00;;;;;;4956332;28;20285;-73
2022/02/11 01:31:49;;;;;;;17.60;9.80;;;2.70;87.10;;;;;;5007405;28;20193;-73
2022/02/11 01:37:30;;;;;;;21.57;10.03;;;2.70;87.20;;;;;;5005735;28;20200;-73
2022/02/11 01:54:36;;;;;;;28.77;13.43;;;2.50;87.70;;;;;;4957808;28;20606;-72
2022/02/11 02:20:34;;;;;;;22.47;11.67;;;2.50;88.00;;;;;;4975354;28;20218;-73
2022/02/11 03:52:22;;;;;;;28.40;14.00;;;1.80;89.60;;;;;;5002974;28;20276;-73
2022/02/11 04:56:34;;;;;;;24.30;13.00;;;1.30;91.00;;;;;;5007952;28;20341;-73
2022/02/11 05:01:45;;;;;;;18.77;11.10;;;1.30;90.60;;;;;;5007214;28;20231;-72
2022/02/11 05:04:10;;;;;;;26.60;12.43;;;1.30;90.60;;;;;;5005891;28;20266;-74
2022/02/11 05:06:36;;;;;;;22.43;12.47;;;1.40;90.60;;;;;;5002441;28;20184;-75
2022/02/11 05:09:02;;;;;;;22.53;11.83;;;1.40;90.40;;;;;;5003045;28;20263;-73
2022/02/11 05:11:29;;;;;;;23.43;13.10;;;1.40;90.40;;;;;;5005577;28;20204;-74
2022/02/11 05:13:55;;;;;;;22.73;12.70;;;1.40;90.30;;;;;;5010136;28;20185;-73
2022/02/11 05:16:21;;;;;;;27.30;13.43;;;1.40;90.40;;;;;;5009323;28;20245;-73
2022/02/11 05:18:46;;;;;;;23.73;13.40;;;1.40;90.50;;;;;;5006093;28;20884;-74
2022/02/11 05:21:12;;;;;;;27.00;14.37;;;1.30;90.40;;;;;;5005576;28;20192;-74
2022/02/11 05:23:38;;;;;;;23.30;13.10;;;1.30;90.40;;;;;;5005098;28;20194;-74
2022/02/11 05:26:03;;;;;;;27.30;13.30;;;1.30;90.40;;;;;;5007271;28;20905;-74
2022/02/11 05:28:29;;;;;;;28.07;13.53;;;1.30;90.50;;;;;;5005687;28;20239;-74
2022/02/11 05:30:55;;;;;;;22.83;13.53;;;1.30;90.50;;;;;;5005556;28;20864;-73
2022/02/11 05:33:22;;;;;;;27.73;13.47;;;1.30;90.40;;;;;;5004426;28;20188;-72
2022/02/11 05:35:48;;;;;;;23.77;12.60;;;1.30;90.50;;;;;;5005632;28;20207;-74
2022/02/11 05:38:14;;;;;;;27.00;13.47;;;1.30;90.40;;;;;;5004145;28;20216;-74
2022/02/11 05:40:40;;;;;;;24.83;13.90;;;1.30;90.30;;;;;;5007021;28;20195;-74
2022/02/11 05:43:05;;;;;;;29.53;14.30;;;1.30;90.40;;;;;;5006048;28;20184;-74
2022/02/11 05:45:31;;;;;;;28.77;14.80;;;1.30;90.40;;;;;;5008673;28;20327;-74
2022/02/11 05:47:57;;;;;;;24.33;13.03;;;1.30;90.50;;;;;;5006570;28;20177;-74
2022/02/11 05:50:23;;;;;;;30.87;15.90;;;1.30;90.50;;;;;;5005438;28;20187;-74
2022/02/11 05:52:49;;;;;;;30.73;16.47;;;1.30;90.70;;;;;;5003618;28;20189;-77
2022/02/11 05:55:14;;;;;;;39.37;18.43;;;1.30;91.00;;;;;;5005326;28;20181;-74
2022/02/11 05:57:40;;;;;;;32.47;15.53;;;1.30;91.20;;;;;;5006631;28;20184;-74
2022/02/11 06:00:07;;;;;;;36.90;17.67;;;1.20;91.20;;;;;;5006417;28;20799;-74
2022/02/11 06:02:32;;;;;;;38.43;16.90;;;1.30;91.40;;;;;;5006323;28;20817;-74
2022/02/11 06:04:58;;;;;;;31.23;15.23;;;1.30;91.40;;;;;;5008683;28;20189;-73
2022/02/11 06:07:23;;;;;;;30.17;13.23;;;1.30;91.50;;;;;;5006357;28;20304;-74
2022/02/11 06:09:49;;;;;;;23.10;12.80;;;1.30;91.40;;;;;;5003415;28;20189;-73
2022/02/11 06:12:15;;;;;;;26.13;14.13;;;1.40;91.40;;;;;;5006162;28;20644;-72
2022/02/11 06:14:42;;;;;;;22.80;13.47;;;1.40;91.50;;;;;;5006481;28;20185;-72
2022/02/11 06:17:08;;;;;;;30.63;13.93;;;1.40;91.40;;;;;;5004049;28;20262;-73
2022/02/11 06:19:34;;;;;;;22.43;12.47;;;1.50;91.50;;;;;;5003872;28;20223;-74
2022/02/11 06:22:00;;;;;;;24.53;13.17;;;1.50;91.40;;;;;;5006271;28;20219;-72
2022/02/11 06:24:25;;;;;;;25.03;13.20;;;1.60;91.30;;;;;;5003123;28;20185;-73
2022/02/11 06:26:51;;;;;;;32.27;14.83;;;1.60;91.30;;;;;;5004673;28;20187;-73
2022/02/11 06:29:17;;;;;;;24.93;13.37;;;1.60;91.50;;;;;;5005592;28;20214;-72
2022/02/11 06:31:43;;;;;;;27.53;15.47;;;1.70;91.60;;;;;;5006119;28;20180;-72
2022/02/11 06:34:08;;;;;;;29.87;14.40;;;1.70;91.60;;;;;;5005127;28;21018;-72
2022/02/11 06:36:35;;;;;;;34.20;15.50;;;1.70;91.70;;;;;;5004739;28;20260;-73
2022/02/11 06:39:01;;;;;;;29.70;14.73;;;1.80;91.70;;;;;;5005689;28;20244;-73
2022/02/11 06:41:27;;;;;;;25.57;14.47;;;1.90;91.70;;;;;;5002020;28;20188;-74
2022/02/11 06:43:53;;;;;;;26.43;14.40;;;1.90;91.60;;;;;;5003420;28;20334;-73
2022/02/11 06:46:21;;;;;;;29.43;16.13;;;2.00;91.60;;;;;;5005368;28;20248;-73
2022/02/11 06:48:48;;;;;;;30.30;15.80;;;2.00;91.50;;;;;;5004939;28;20205;-73
2022/02/11 06:51:14;;;;;;;32.50;16.27;;;2.10;91.50;;;;;;5004361;28;20185;-72
2022/02/11 06:53:40;;;;;;;33.30;15.97;;;2.20;91.40;;;;;;5005226;28;20181;-72
2022/02/11 06:56:06;;;;;;;29.10;16.10;;;2.30;91.30;;;;;;5007757;28;20185;-73
2022/02/11 06:58:32;;;;;;;37.40;16.93;;;2.30;91.30;;;;;;5002832;28;20271;-73
2022/02/11 07:00:58;;;;;;;33.40;17.37;;;2.50;91.30;;;;;;5004628;28;20197;-73
2022/02/11 07:03:24;;;;;;;36.43;19.43;;;2.60;91.20;;;;;;5000374;28;20189;-72
2022/02/11 07:05:53;;;;;;;40.13;19.50;;;2.70;91.10;;;;;;5005621;28;20675;-72
2022/02/11 07:08:19;;;;;;;36.20;19.63;;;2.90;90.90;;;;;;5001677;28;20259;-72
2022/02/11 07:10:45;;;;;;;33.40;19.23;;;3.10;91.00;;;;;;5002616;28;20231;-72
2022/02/11 07:13:13;;;;;;;44.33;22.13;;;3.40;91.10;;;;;;5001690;28;20188;-73
2022/02/11 07:15:44;;;;;;;38.60;22.20;;;3.90;91.40;;;;;;5002859;28;20215;-72
2022/02/11 07:18:11;;;;;;;40.50;21.10;;;4.40;90.90;;;;;;5000719;28;20683;-73
2022/02/11 07:20:38;;;;;;;37.07;20.43;;;5.20;90.90;;;;;;5001651;28;20195;-72
2022/02/11 07:23:04;;;;;;;44.33;23.00;;;6.00;90.10;;;;;;5003987;28;20192;-71
2022/02/11 07:25:32;;;;;;;46.83;23.20;;;6.90;87.80;;;;;;5003620;28;20260;-71
2022/02/11 07:27:58;;;;;;;45.40;24.70;;;7.70;86.00;;;;;;5003377;28;20197;-73
2022/02/11 07:30:24;;;;;;;52.40;26.23;;;8.60;81.40;;;;;;5002311;28;20188;-73
2022/02/11 07:32:53;;;;;;;51.80;27.07;;;9.30;79.50;;;;;;4999197;28;20188;-73
2022/02/11 07:35:21;;;;;;;48.50;26.07;;;10.00;77.40;;;;;;5001561;28;20521;-73
2022/02/11 07:37:47;;;;;;;47.47;25.50;;;10.60;77.30;;;;;;5000917;28;20897;-74
2022/02/11 07:40:13;;;;;;;51.63;28.23;;;11.30;77.20;;;;;;5004530;28;20303;-72
2022/02/11 07:42:44;;;;;;;54.03;29.47;;;12.10;73.00;;;;;;5003097;28;20205;-72
2022/02/11 07:45:11;;;;;;;53.15;28.85;;;12.40;70.70;;;;;;5004051;28;20184;-72
2022/02/11 07:47:37;;;;;;;53.58;27.40;;;12.80;69.40;;;;;;5001817;28;20193;-72
2022/02/11 07:50:03;;;;;;;42.35;25.42;;;13.30;69.60;;;;;;5002808;28;20256;-72
2022/02/11 07:52:29;;;;;;;50.88;25.60;;;13.90;66.50;;;;;;5002007;28;20367;-73
2022/02/11 07:54:54;;;;;;;35.90;23.55;;;14.20;65.70;;;;;;5003212;28;20181;-72
2022/02/11 07:57:20;;;;;;;37.25;21.27;;;14.40;65.10;;;;;;5003173;28;20722;-75
2022/02/11 07:59:46;;;;;;;37.53;22.45;;;14.70;64.60;;;;;;5004038;28;20189;-74
2022/02/11 08:02:12;;;;;;;35.88;22.83;;;14.90;63.30;;;;;;5001815;28;20746;-74
2022/02/11 08:04:38;;;;;;;39.00;22.38;;;15.40;64.00;;;;;;5002434;28;20752;-74
2022/02/11 08:07:04;;;;;;;38.45;24.00;;;15.70;61.60;;;;;;5003176;28;20562;-74
2022/02/11 08:09:30;;;;;;;41.15;24.23;;;15.80;61.30;;;;;;5002309;28;20270;-74
2022/02/11 08:11:57;;;;;;;36.40;22.88;;;15.90;61.20;;;;;;5002107;28;20181;-78
2022/02/11 08:14:26;;;;;;;36.33;21.38;;;16.10;61.10;;;;;;5000728;28;20180;-78
2022/02/11 08:16:52;;;;;;;32.97;21.25;;;16.30;60.30;;;;;;5002613;28;20185;-76
2022/02/11 08:19:19;;;;;;;36.88;19.73;;;16.40;59.80;;;;;;5000972;28;20691;-75
2022/02/11 08:21:49;;;;;;;35.65;20.40;;;16.50;59.20;;;;;;5002473;28;20211;-77
2022/02/11 08:24:15;;;;;;;39.75;22.42;;;16.80;59.30;;;;;;4999983;28;20254;-75
2022/02/11 08:26:43;;;;;;;31.85;21.23;;;17.00;59.40;;;;;;5000973;28;20269;-75
2022/02/11 08:29:09;;;;;;;33.65;22.58;;;17.20;58.70;;;;;;4999825;28;20703;-76
2022/02/11 08:31:35;;;;;;;34.80;22.52;;;17.60;58.50;;;;;;4997875;28;20702;-76
2022/02/11 08:34:01;;;;;;;33.45;22.80;;;18.00;58.70;;;;;;4997139;28;20184;-76
2022/02/11 08:36:27;;;;;;;33.17;20.48;;;18.60;57.90;;;;;;5001082;28;20177;-75
2022/02/11 08:38:55;;;;;;;25.08;18.48;;;18.90;56.50;;;;;;4999594;28;20196;-79
2022/02/11 08:41:22;;;;;;;30.58;20.38;;;18.80;55.90;;;;;;5001981;28;20219;-77
2022/02/11 08:43:49;;;;;;;33.75;21.55;;;18.60;56.00;;;;;;5001110;28;20647;-77
2022/02/11 08:46:16;;;;;;;33.10;20.90;;;18.80;55.20;;;;;;5003037;28;20563;-77
2022/02/11 08:48:41;;;;;;;35.75;22.25;;;19.00;55.60;;;;;;5003266;28;20664;-75
2022/02/11 08:51:07;;;;;;;31.45;21.77;;;19.40;55.80;;;;;;4999856;28;20188;-76
2022/02/11 08:53:36;;;;;;;34.58;21.98;;;19.80;54.60;;;;;;4997660;28;20580;-76
2022/02/11 08:56:07;;;;;;;35.33;23.20;;;20.10;55.00;;;;;;5000451;28;20185;-76
2022/02/11 08:58:33;;;;;;;36.60;23.20;;;20.60;53.80;;;;;;4997276;28;20188;-76
2022/02/11 09:00:59;;;;;;;38.38;25.52;;;21.20;53.10;;;;;;4998891;28;20850;-75
2022/02/11 09:03:25;;;;;;;51.10;28.55;;;21.70;53.00;;;;;;5000480;28;20212;-75
2022/02/11 09:05:51;;;;;;;47.70;30.27;;;22.30;52.40;;;;;;5000510;28;20181;-74
2022/02/11 09:08:17;;;;;;;49.17;31.60;;;22.60;50.50;;;;;;4999455;28;20189;-75
2022/02/11 09:10:47;;;;;;;51.08;34.22;;;23.00;51.40;;;;;;5001967;28;20189;-75
2022/02/11 09:13:13;;;;;;;54.78;33.47;;;23.30;50.30;;;;;;5000328;28;20786;-75
2022/02/11 09:15:39;;;;;;;52.58;35.38;;;23.30;49.70;;;;;;5000021;28;20184;-76
2022/02/11 09:18:04;;;;;;;61.40;36.58;;;23.60;50.00;;;;;;4999578;28;20200;-75
2022/02/11 09:20:30;;;;;;;59.08;37.75;;;23.90;50.30;;;;;;4998964;28;21279;-75
2022/02/11 09:22:57;;;;;;;60.47;38.08;;;24.30;49.10;;;;;;4999657;28;20234;-75
2022/02/11 09:25:23;;;;;;;61.40;38.97;;;24.30;48.00;;;;;;4999642;28;20629;-74
2022/02/11 09:27:49;;;;;;;55.60;38.22;;;24.30;48.70;;;;;;5002557;28;20185;-74
2022/02/11 09:30:22;;;;;;;55.13;38.25;;;24.60;48.60;;;;;;5001663;28;20272;-74
2022/02/11 09:32:55;;;;;;;53.90;37.63;;;24.60;47.40;;;;;;5000838;28;20200;-75
2022/02/11 09:35:21;;;;;;;52.85;35.20;;;24.60;49.10;;;;;;5000153;28;20189;-74
2022/02/11 09:37:48;;;;;;;55.10;35.97;;;24.90;48.80;;;;;;4999731;28;20561;-74
2022/02/11 09:40:16;;;;;;;49.08;34.40;;;25.00;47.00;;;;;;4998224;28;20630;-75
2022/02/11 09:42:43;;;;;;;58.15;35.10;;;25.10;48.50;;;;;;5000410;28;20185;-74
2022/02/11 09:45:13;;;;;;;50.03;31.67;;;25.40;47.80;;;;;;5001437;28;20184;-76
2022/02/11 09:47:39;;;;;;;57.10;31.67;;;25.80;47.90;;;;;;5001522;28;20671;-75
2022/02/11 09:50:05;;;;;;;46.33;31.90;;;26.20;47.70;;;;;;5001368;28;20221;-76
2022/02/11 09:52:40;;;;;;;50.67;30.70;;;26.40;46.50;;;;;;5001671;28;20583;-76
2022/02/11 09:57:52;;;;;;;37.92;27.80;;;26.50;46.50;;;;;;5004277;28;20227;-76
2022/02/11 10:00:18;;;;;;;44.88;27.08;;;26.80;47.00;;;;;;5005118;28;20189;-76
2022/02/11 10:02:53;;;;;;;35.83;25.65;;;27.10;45.90;;;;;;5005669;28;20184;-76
2022/02/11 10:05:25;;;;;;;36.00;24.98;;;27.40;46.20;;;;;;5003765;28;20250;-76
2022/02/11 10:07:52;;;;;;;36.97;25.88;;;27.80;46.20;;;;;;5004779;28;20477;-76
2022/02/11 10:10:38;;;;;;;34.13;23.80;;;28.10;45.00;;;;;;5004790;28;20242;-76
2022/02/11 10:13:06;;;;;;;35.28;22.83;;;28.40;45.30;;;;;;5002118;28;20192;-76
2022/02/11 10:15:34;;;;;;;27.27;22.52;;;28.70;44.50;;;;;;5005164;28;20659;-76
2022/02/11 10:18:00;;;;;;;31.02;22.27;;;28.90;43.10;;;;;;5002477;28;20185;-76
2022/02/11 10:20:29;;;;;;;31.13;21.83;;;28.70;43.50;;;;;;5003417;28;20585;-76
2022/02/11 10:23:23;;;;;;;28.33;20.90;;;28.30;42.60;;;;;;5001935;28;20181;-76
2022/02/11 10:25:58;;;;;;;26.80;20.90;;;28.50;42.30;;;;;;4992867;28;20255;-77
2022/02/11 10:28:32;;;;;;;26.40;21.52;;;28.60;44.60;;;;;;4993394;28;20196;-77
2022/02/11 10:31:11;;;;;;;27.80;22.70;;;28.90;44.30;;;;;;4978266;28;20193;-76
2022/02/11 10:33:52;;;;;;;27.35;20.67;;;28.90;42.30;;;;;;4994613;28;20208;-76
2022/02/11 10:36:29;;;;;;;28.58;21.35;;;28.80;43.10;;;;;;4997016;28;20204;-76
2022/02/11 10:39:21;;;;;;;31.05;21.15;;;28.70;43.10;;;;;;4994905;28;20760;-76
2022/02/11 10:42:22;;;;;;;33.53;22.23;;;28.40;42.30;;;;;;4997039;28;20185;-75
2022/02/11 10:45:01;;;;;;;31.35;22.23;;;28.00;44.10;;;;;;4998480;28;20590;-77
2022/02/11 10:47:50;;;;;;;32.03;21.98;;;27.70;43.10;;;;;;5012046;28;20181;-76
2022/02/11 10:50:48;;;;;;;28.67;20.88;;;27.50;42.40;;;;;;4945240;29;20202;-75
2022/02/11 10:56:50;;;;;;;30.00;20.45;;;27.50;41.90;;;;;;4881749;29;20199;-77
2022/02/11 11:00:09;;;;;;;30.85;21.08;;;27.10;43.80;;;;;;4885162;29;20378;-77
2022/02/11 11:02:36;;;;;;;29.10;20.13;;;26.90;42.00;;;;;;4833207;29;20281;-75
2022/02/11 11:05:38;;;;;;;26.40;20.38;;;27.00;45.00;;;;;;4805610;29;20199;-76
2022/02/11 11:11:43;;;;;;;29.75;21.30;;;27.30;41.70;;;;;;4776168;29;20235;-75
2022/02/11 11:14:17;;;;;;;34.03;21.38;;;27.30;43.30;;;;;;4777782;29;20205;-76
2022/02/11 11:17:07;;;;;;;32.97;20.88;;;27.30;43.40;;;;;;4777727;29;20193;-76
2022/02/11 11:19:56;;;;;;;31.17;21.27;;;27.40;43.80;;;;;;4777584;29;20236;-76
2022/02/11 11:22:27;;;;;;;29.73;20.50;;;27.50;42.60;;;;;;4776125;29;20204;-75
2022/02/11 11:24:57;;;;;;;31.40;22.27;;;27.60;44.30;;;;;;4790416;29;20204;-75
2022/02/11 11:27:43;;;;;;;26.75;19.77;;;27.90;43.80;;;;;;4802172;29;20204;-75
2022/02/11 11:30:25;;;;;;;30.00;21.88;;;28.30;42.50;;;;;;4811229;29;20761;-76
2022/02/11 11:33:09;;;;;;;28.25;21.58;;;28.40;41.60;;;;;;4812334;29;20223;-77
2022/02/11 11:35:43;;;;;;;29.65;21.25;;;28.30;41.90;;;;;;4828937;29;20191;-75
2022/02/11 11:38:09;;;;;;;37.05;23.55;;;28.10;43.40;;;;;;4846972;29;20203;-74
2022/02/11 11:40:34;;;;;;;31.88;22.25;;;28.10;42.00;;;;;;4885538;29;20256;-75
2022/02/11 11:43:16;;;;;;;30.63;21.58;;;27.90;42.30;;;;;;4935313;28;20195;-75
2022/02/11 11:45:43;;;;;;;30.73;22.05;;;27.60;42.80;;;;;;4948132;28;20205;-75
2022/02/11 11:48:16;;;;;;;27.88;21.88;;;27.50;43.10;;;;;;5001221;28;20190;-76
2022/02/11 11:50:44;;;;;;;32.83;22.50;;;27.50;43.90;;;;;;5001632;28;20185;-74
2022/02/11 11:53:25;;;;;;;26.10;20.88;;;27.60;44.30;;;;;;4997891;28;20207;-73
2022/02/11 11:55:51;;;;;;;31.30;21.75;;;27.90;42.60;;;;;;5001097;28;20185;-75
2022/02/11 11:58:45;;;;;;;29.70;21.77;;;28.00;42.90;;;;;;5005430;28;20250;-77
2022/02/11 12:01:19;;;;;;;25.45;20.80;;;28.00;40.60;;;;;;5003434;28;20860;-77
2022/02/11 12:04:16;;;;;;;27.80;19.90;;;28.10;42.90;;;;;;5006028;28;20651;-78
2022/02/11 12:06:42;;;;;;;29.05;19.50;;;28.30;41.10;;;;;;5006982;28;20608;-78
2022/02/11 12:09:08;;;;;;;30.35;20.48;;;28.50;41.40;;;;;;5007772;28;20197;-78
2022/02/11 12:11:34;;;;;;;26.75;20.05;;;28.40;42.70;;;;;;5007501;28;20750;-77
2022/02/11 12:14:01;;;;;;;36.45;21.85;;;28.40;41.50;;;;;;5002813;28;20223;-77
2022/02/11 12:16:29;;;;;;;27.17;20.30;;;28.50;42.50;;;;;;5006658;28;20200;-76
2022/02/11 12:18:55;;;;;;;30.90;18.15;;;28.40;42.30;;;;;;5003689;28;20593;-77
2022/02/11 12:21:21;;;;;;;24.85;19.13;;;28.40;41.50;;;;;;5003389;28;20185;-76
2022/02/11 12:29:17;;;;;;;26.38;17.25;;;28.20;41.60;;;;;;5001079;28;21218;-75
2022/02/11 12:31:51;;;;;;;26.48;16.92;;;28.20;42.00;;;;;;5003485;28;20663;-75
2022/02/11 12:34:20;;;;;;;21.40;17.00;;;28.20;42.70;;;;;;4989272;28;20244;-78
2022/02/11 12:36:46;;;;;;;21.50;16.45;;;28.20;42.40;;;;;;4980739;28;20189;-77
2022/02/11 12:39:24;;;;;;;22.95;16.60;;;28.30;42.60;;;;;;4982785;28;20224;-77
2022/02/11 12:41:51;;;;;;;18.80;15.02;;;28.40;41.60;;;;;;4982320;28;20185;-76
2022/02/11 12:44:29;;;;;;;19.80;13.82;;;28.60;42.70;;;;;;4983693;28;20181;-75
2022/02/11 12:46:56;;;;;;;17.30;12.73;;;28.80;41.60;;;;;;4984048;28;20185;-76
2022/02/11 12:49:22;;;;;;;21.55;13.68;;;28.80;39.70;;;;;;4984878;28;20186;-76
2022/02/11 12:51:51;;;;;;;14.90;12.00;;;28.80;41.00;;;;;;4984117;28;20192;-76
2022/02/11 12:54:19;;;;;;;17.80;12.65;;;28.80;41.00;;;;;;4982364;28;20193;-76
2022/02/11 12:56:49;;;;;;;14.27;12.40;;;29.00;41.30;;;;;;4982677;28;20253;-76
2022/02/11 12:59:15;;;;;;;13.65;12.23;;;28.20;39.90;;;;;;4983181;28;20219;-76
2022/02/11 13:01:41;;;;;;;17.15;12.30;;;27.60;40.20;;;;;;4985486;28;20207;-77
2022/02/11 13:04:07;;;;;;;17.40;12.23;;;27.30;41.50;;;;;;4984618;28;20268;-76
2022/02/11 13:06:35;;;;;;;17.77;11.50;;;27.20;42.50;;;;;;4984621;28;20771;-76
2022/02/11 13:09:04;;;;;;;14.32;10.18;;;27.30;41.90;;;;;;4985898;28;20225;-76
2022/02/11 13:11:30;;;;;;;11.95;10.73;;;27.30;41.00;;;;;;4986227;28;20178;-77
2022/02/11 13:14:06;;;;;;;14.50;11.43;;;27.50;41.20;;;;;;4984475;28;20236;-77
2022/02/11 13:16:37;;;;;;;12.93;10.20;;;27.60;41.00;;;;;;4987467;28;20228;-77
2022/02/11 13:19:11;;;;;;;11.63;10.45;;;27.70;42.10;;;;;;4987408;28;20271;-77
2022/02/11 13:21:38;;;;;;;15.88;11.20;;;27.90;41.50;;;;;;4989534;28;20247;-75
2022/02/11 13:24:05;;;;;;;13.95;10.00;;;27.90;41.80;;;;;;4988368;28;20635;-76
2022/02/11 13:26:32;;;;;;;12.10;9.32;;;27.90;40.70;;;;;;4987739;28;20194;-76
2022/02/11 13:28:58;;;;;;;14.48;10.57;;;27.80;41.50;;;;;;4989475;28;20182;-76
2022/02/11 13:31:24;;;;;;;11.70;9.85;;;27.50;41.10;;;;;;4989325;28;20661;-78
2022/02/11 13:34:11;;;;;;;17.55;9.88;;;27.40;40.70;;;;;;4987036;28;20189;-76
2022/02/11 13:36:45;;;;;;;9.90;8.88;;;27.40;40.40;;;;;;4987913;28;20190;-76
2022/02/11 13:39:23;;;;;;;15.10;8.98;;;27.30;41.60;;;;;;4986020;28;20599;-76
2022/02/11 13:41:49;;;;;;;11.45;9.48;;;27.20;41.40;;;;;;4986991;28;20256;-77
2022/02/11 13:44:21;;;;;;;12.82;9.45;;;26.90;41.90;;;;;;4989986;28;20228;-76
2022/02/11 13:46:55;;;;;;;14.98;8.73;;;26.70;41.40;;;;;;4990575;28;20285;-77
2022/02/11 13:49:22;;;;;;;15.18;9.18;;;26.50;41.60;;;;;;4988926;28;20185;-77
2022/02/11 13:55:03;;;;;;;10.05;9.00;;;26.20;41.10;;;;;;4993235;28;20193;-80
2022/02/11 13:57:33;;;;;;;11.15;8.82;;;25.80;41.50;;;;;;4994306;28;20197;-76
2022/02/11 14:00:24;;;;;;;11.32;8.65;;;25.60;41.40;;;;;;4991266;28;20213;-76
2022/02/11 14:02:50;;;;;;;11.88;8.88;;;25.40;41.50;;;;;;4990100;28;20193;-77
2022/02/11 14:05:18;;;;;;;13.25;8.80;;;25.40;42.60;;;;;;4993152;28;20213;-76
2022/02/11 14:07:58;;;;;;;13.75;9.20;;;25.30;42.70;;;;;;4991257;28;20212;-74
2022/02/11 14:10:24;;;;;;;11.35;9.38;;;25.20;42.40;;;;;;4993517;28;20192;-76
2022/02/11 14:13:06;;;;;;;11.13;8.25;;;25.20;42.70;;;;;;4990776;28;20181;-74
2022/02/11 14:15:36;;;;;;;9.63;8.20;;;25.10;42.30;;;;;;4988369;28;20198;-74
2022/02/11 14:18:06;;;;;;;8.55;7.75;;;24.90;42.90;;;;;;4985106;28;20186;-74
2022/02/11 14:20:35;;;;;;;10.45;8.05;;;24.80;43.20;;;;;;4987081;28;20300;-75
2022/02/11 14:23:15;;;;;;;10.32;8.48;;;24.50;43.20;;;;;;4987093;28;20538;-74
2022/02/11 14:25:42;;;;;;;9.20;7.68;;;24.40;43.30;;;;;;4987534;28;20181;-76
2022/02/11 14:28:12;;;;;;;15.60;8.35;;;24.30;43.60;;;;;;4988141;28;20274;-73
2022/02/11 14:30:43;;;;;;;8.30;7.38;;;24.10;43.80;;;;;;4988099;28;20224;-74
2022/02/11 14:33:10;;;;;;;11.23;7.93;;;23.90;43.40;;;;;;4988395;28;20188;-75
2022/02/11 14:35:36;;;;;;;11.52;8.45;;;23.80;43.70;;;;;;4987977;28;20627;-75
2022/02/11 14:38:02;;;;;;;10.80;8.00;;;23.70;44.00;;;;;;4989061;28;20193;-76
2022/02/11 14:40:28;;;;;;;12.68;8.45;;;23.60;44.60;;;;;;4988992;28;20778;-74
2022/02/11 14:42:54;;;;;;;13.07;8.23;;;23.40;44.50;;;;;;4991478;28;20188;-75
2022/02/11 14:45:21;;;;;;;8.85;8.00;;;23.30;44.30;;;;;;4989246;28;20178;-75
2022/02/11 14:47:47;;;;;;;11.25;7.80;;;23.10;44.80;;;;;;4985030;28;20192;-76
2022/02/11 14:50:13;;;;;;;10.55;8.05;;;22.80;44.80;;;;;;4983337;28;20185;-77
2022/02/11 14:52:39;;;;;;;9.10;8.20;;;22.60;45.00;;;;;;4982467;28;20267;-76
2022/02/11 14:55:06;;;;;;;26.85;13.20;;;22.50;45.20;;;;;;4985794;28;20190;-76
2022/02/11 14:57:34;;;;;;;28.45;17.17;;;22.20;45.40;;;;;;4987639;28;20189;-77
2022/02/11 15:00:02;;;;;;;28.58;18.83;;;21.80;46.70;;;;;;4984472;28;20236;-78
2022/02/11 15:02:28;;;;;;;33.55;20.30;;;21.40;47.90;;;;;;4983060;28;20668;-78
2022/02/11 15:04:54;;;;;;;31.83;20.10;;;21.00;48.40;;;;;;4983969;28;20206;-79
2022/02/11 15:07:20;;;;;;;32.60;19.48;;;20.60;48.30;;;;;;4984722;28;20187;-77
2022/02/11 15:09:46;;;;;;;30.38;20.08;;;20.10;49.20;;;;;;4980248;28;20220;-79
2022/02/11 15:12:12;;;;;;;31.05;21.23;;;19.70;49.50;;;;;;4982573;28;20719;-79
2022/02/11 15:14:38;;;;;;;31.02;19.70;;;19.40;49.60;;;;;;4984949;28;20628;-79
2022/02/11 15:17:04;;;;;;;32.53;18.75;;;19.10;50.50;;;;;;4983007;28;20217;-78
2022/02/11 15:19:30;;;;;;;32.47;18.98;;;18.90;50.80;;;;;;4984551;28;20542;-78
2022/02/11 15:21:55;;;;;;;31.80;18.98;;;18.60;51.30;;;;;;4982187;28;20185;-78
2022/02/11 15:24:21;;;;;;;29.20;18.50;;;18.40;51.40;;;;;;4980051;28;20182;-78
2022/02/11 15:26:50;;;;;;;25.50;15.68;;;18.10;51.90;;;;;;4982679;28;20174;-77
2022/02/11 15:29:15;;;;;;;24.45;15.45;;;17.90;52.50;;;;;;4981509;28;20336;-80
2022/02/11 15:31:42;;;;;;;28.90;15.40;;;17.60;52.60;;;;;;4981651;28;20331;-79
2022/02/11 15:34:07;;;;;;;22.38;14.27;;;17.30;53.20;;;;;;4980576;28;20186;-74
2022/02/11 15:36:33;;;;;;;25.70;13.07;;;17.00;53.70;;;;;;4981496;28;20196;-73
2022/02/11 15:38:59;;;;;;;19.48;13.02;;;16.70;54.00;;;;;;4980365;28;20777;-74
2022/02/11 15:41:25;;;;;;;16.42;10.98;;;16.40;54.50;;;;;;4984175;28;20194;-77
2022/02/11 15:43:51;;;;;;;19.05;11.05;;;16.00;55.10;;;;;;4983425;28;20277;-78
2022/02/11 15:46:16;;;;;;;19.70;11.38;;;15.70;55.40;;;;;;4983770;28;20247;-78
2022/02/11 15:48:42;;;;;;;20.42;11.55;;;15.30;56.60;;;;;;4979523;28;20204;-78
2022/02/11 15:51:11;;;;;;;17.40;11.98;;;14.80;57.40;;;;;;4982743;28;20192;-78
2022/02/11 15:53:38;;;;;;;18.45;11.07;;;14.50;58.30;;;;;;4983610;28;20192;-78
2022/02/11 15:56:04;;;;;;;14.57;11.07;;;14.20;58.40;;;;;;4984500;28;20185;-77
2022/02/11 15:58:30;;;;;;;17.90;10.88;;;14.00;59.30;;;;;;4984671;28;20272;-78
2022/02/11 16:00:56;;;;;;;18.17;11.80;;;13.70;59.70;;;;;;4984942;28;20285;-78
2022/02/11 16:03:24;;;;;;;18.77;11.48;;;13.40;60.50;;;;;;4983373;28;20251;-78
2022/02/11 16:05:50;;;;;;;17.35;12.10;;;13.20;60.80;;;;;;4983503;28;20177;-78
2022/02/11 16:08:15;;;;;;;17.50;10.77;;;13.00;61.10;;;;;;4983394;28;20209;-78
2022/02/11 16:10:41;;;;;;;18.17;11.50;;;12.70;62.10;;;;;;4983568;28;20846;-78
2022/02/11 16:13:07;;;;;;;19.13;11.07;;;12.60;61.90;;;;;;4982874;28;20188;-78
2022/02/11 16:15:33;;;;;;;16.23;10.80;;;12.40;62.30;;;;;;4984513;28;21005;-78
2022/02/11 16:18:03;;;;;;;20.98;10.25;;;12.20;63.00;;;;;;4983009;28;20689;-78
2022/02/11 16:20:44;;;;;;;14.50;10.20;;;12.00;63.20;;;;;;4984651;28;20217;-77
2022/02/11 16:23:12;;;;;;;35.75;10.38;;;11.80;63.40;;;;;;4984033;28;20186;-78
2022/02/11 16:25:38;;;;;;;16.23;10.25;;;11.70;63.80;;;;;;4984700;28;20281;-78
2022/02/11 16:28:06;;;;;;;19.23;10.13;;;11.50;64.10;;;;;;4984513;28;20264;-78
2022/02/11 16:30:33;;;;;;;18.05;9.38;;;11.30;64.60;;;;;;4984426;28;20277;-79
2022/02/11 16:33:11;;;;;;;14.25;8.93;;;11.10;64.40;;;;;;4983846;28;20178;-78
2022/02/11 16:35:39;;;;;;;14.23;7.97;;;11.00;64.40;;;;;;4985697;28;20181;-78
2022/02/11 16:38:06;;;;;;;14.50;8.23;;;10.90;64.90;;;;;;4983708;28;20680;-78
2022/02/11 16:40:33;;;;;;;11.07;7.72;;;10.80;64.50;;;;;;4984269;28;20222;-78
2022/02/11 16:42:59;;;;;;;11.00;7.45;;;10.70;64.90;;;;;;4984125;28;20571;-78
2022/02/11 16:45:24;;;;;;;10.57;7.40;;;10.70;64.50;;;;;;4983620;28;20252;-78
2022/02/11 16:47:50;;;;;;;11.57;7.40;;;10.60;64.70;;;;;;4985389;28;20664;-78
2022/02/11 16:50:16;;;;;;;9.95;5.97;;;10.60;64.30;;;;;;4984199;28;20595;-78
2022/02/11 16:52:42;;;;;;;12.60;6.35;;;10.50;64.50;;;;;;4984410;28;20213;-78
2022/02/11 16:55:09;;;;;;;9.25;6.30;;;10.50;64.40;;;;;;4985307;28;20188;-78
2022/02/11 16:57:35;;;;;;;14.15;6.28;;;10.40;64.40;;;;;;4984263;28;20575;-79